Weather History for KSLB - April, 2013

Change the Weather History Date:

Tuesday, April 30, 2013

  Actual Average Record
Temperature  
Mean Temperature 60 °F -  
Max Temperature 69 °F 65 °F 91 °F (2007)
Min Temperature 51 °F 44 °F 32 °F (2005)
Degree Days  
Heating Degree Days 5    
Growing Degree Days 10 (Base 50)    
Moisture  
Dew Point 46 °F    
Average Humidity 55    
Maximum Humidity 82    
Minimum Humidity 35    
Precipitation  
Precipitation 0.03 in - - ()
Sea Level Pressure  
Sea Level Pressure 29.67 in    
Wind  
Wind Speed 15 mph (NNW)    
Max Wind Speed 24 mph    
Max Gust Speed 33 mph    
Visibility 10 miles    
Events Rain    
Averages and records for this station are not official NWS values.
T = Trace of Precipitation, MM = Missing Value Source: NWS Daily Summary

Daily Weather History Graph

Daily Weather History Graph

Search for Another Location

Airport or City:

Trip Planner

Search our weather history database for the weather conditions in past years. The results will help you decide how hot, cold, wet, or windy it might be!

Date:

Astronomy

Apr. 30, 2013 Rise Set
Actual Time 6:16 AM CDT 8:20 PM CDT
Civil Twilight 5:45 AM CDT 8:51 PM CDT
Nautical Twilight 5:08 AM CDT 9:28 PM CDT
Astronomical Twilight 4:27 AM CDT 10:10 PM CDT
Moon 12:45 AM CDT 10:45 AM CDT
Length of Visible Light 15h 05m
Length of Day
14h 03m
Waning Gibbous, 70% of the Moon is Illuminated
Apr 30
Waning Gibbous
May 2
Last Quarter
May 9
New
May 17
First Quarter
May 24
Full

Hourly Weather History & Observations

Time (CDT) Temp. Dew Point Humidity Pressure Visibility Wind Dir Wind Speed Gust Speed Precip Events Conditions
12:15 AM 62.6 °F 50.0 °F 63% 29.48 in 10.0 mi South 11.5 mph - N/A   Clear
12:35 AM 62.6 °F 50.0 °F 63% 29.48 in 10.0 mi South 12.7 mph - N/A   Clear
12:55 AM 62.6 °F 51.8 °F 68% 29.47 in 10.0 mi SSE 11.5 mph - N/A   Clear
1:15 AM 62.6 °F 53.6 °F 72% 29.47 in 10.0 mi SSE 12.7 mph - N/A   Clear
1:35 AM 60.8 °F 53.6 °F 77% 29.47 in 10.0 mi South 11.5 mph - N/A   Clear
1:55 AM 60.8 °F 55.4 °F 82% 29.47 in 10.0 mi South 11.5 mph - N/A   Clear
2:15 AM 62.6 °F 55.4 °F 77% 29.47 in 10.0 mi SSE 11.5 mph - N/A   Clear
2:35 AM 62.6 °F 57.2 °F 82% 29.46 in 10.0 mi SSE 13.8 mph - N/A   Clear
2:55 AM 64.4 °F 57.2 °F 77% 29.45 in 10.0 mi South 17.3 mph - N/A   Clear
3:15 AM 68.0 °F 57.2 °F 68% 29.45 in 10.0 mi South 20.7 mph - N/A   Clear
3:35 AM 68.0 °F 55.4 °F 64% 29.44 in 10.0 mi SSW 24.2 mph 33.4 mph N/A   Clear
3:55 AM 68.0 °F 55.4 °F 64% 29.45 in 10.0 mi SSW 23.0 mph 29.9 mph N/A   Clear
4:15 AM 66.2 °F 55.4 °F 68% 29.46 in 10.0 mi SSW 20.7 mph - N/A   Clear
4:35 AM 66.2 °F 55.4 °F 68% 29.46 in 10.0 mi SSW 21.9 mph 27.6 mph N/A   Clear
4:55 AM 66.2 °F 55.4 °F 68% 29.46 in 10.0 mi SSW 24.2 mph - N/A   Clear
5:15 AM 66.2 °F 53.6 °F 64% 29.47 in 10.0 mi SSW 21.9 mph 29.9 mph N/A   Clear
5:35 AM 66.2 °F 53.6 °F 64% 29.48 in 10.0 mi SSW 20.7 mph 26.5 mph N/A   Clear
5:55 AM 64.4 °F 53.6 °F 68% 29.48 in 10.0 mi SSW 23.0 mph 29.9 mph N/A   Clear
6:15 AM 64.4 °F 53.6 °F 68% 29.51 in 10.0 mi SW 18.4 mph - N/A   Clear
6:35 AM 64.4 °F 51.8 °F 64% 29.52 in 10.0 mi SW 20.7 mph 26.5 mph N/A   Clear
6:55 AM 64.4 °F 51.8 °F 64% 29.53 in 10.0 mi SW 18.4 mph 24.2 mph N/A   Clear
7:15 AM 66.2 °F 51.8 °F 60% 29.54 in 10.0 mi SW 17.3 mph 25.3 mph N/A   Clear
7:35 AM 66.2 °F 51.8 °F 60% 29.56 in 10.0 mi SW 20.7 mph 26.5 mph N/A   Clear
7:55 AM 68.0 °F 51.8 °F 56% 29.57 in 10.0 mi WSW 21.9 mph - N/A   Clear
8:15 AM 62.6 °F 46.4 °F 55% 29.60 in 8.0 mi West 24.2 mph 32.2 mph N/A   Clear
8:35 AM 60.8 °F 46.4 °F 59% 29.61 in 10.0 mi West 21.9 mph - N/A   Clear
8:55 AM 60.8 °F 46.4 °F 59% 29.62 in 8.0 mi WNW 23.0 mph 28.8 mph N/A   Clear
9:15 AM 59.0 °F 46.4 °F 63% 29.65 in 9.0 mi WNW 17.3 mph 23.0 mph N/A   Clear
9:35 AM 59.0 °F 44.6 °F 59% 29.66 in 10.0 mi NW 19.6 mph - N/A   Clear
9:55 AM 60.8 °F 44.6 °F 55% 29.66 in 10.0 mi NNW 17.3 mph - N/A   Clear
10:15 AM 62.6 °F 44.6 °F 52% 29.67 in 10.0 mi NNW 17.3 mph - N/A   Clear
10:35 AM 62.6 °F 44.6 °F 52% 29.68 in 10.0 mi NNW 17.3 mph - N/A   Clear
10:55 AM 64.4 °F 44.6 °F 49% 29.69 in 10.0 mi NW 19.6 mph - N/A   Clear
11:15 AM 64.4 °F 44.6 °F 49% 29.69 in 10.0 mi NW 19.6 mph 26.5 mph N/A   Clear
11:35 AM 64.4 °F 44.6 °F 49% 29.70 in 10.0 mi NW 18.4 mph - N/A   Clear
11:55 AM 66.2 °F 44.6 °F 46% 29.71 in 10.0 mi NNW 13.8 mph - N/A   Clear
12:15 PM 66.2 °F 44.6 °F 46% 29.72 in 10.0 mi NW 11.5 mph 18.4 mph N/A   Clear
12:35 PM 64.4 °F 42.8 °F 45% 29.72 in 10.0 mi North 10.4 mph - N/A   Clear
12:55 PM 66.2 °F 42.8 °F 43% 29.73 in 10.0 mi NNW 13.8 mph 19.6 mph N/A   Clear
1:15 PM 66.2 °F 42.8 °F 43% 29.74 in 10.0 mi NW 10.4 mph 17.3 mph N/A   Clear
1:35 PM 64.4 °F 42.8 °F 45% 29.74 in 10.0 mi North 10.4 mph - N/A   Clear
1:55 PM 66.2 °F 42.8 °F 43% 29.76 in 10.0 mi NW 10.4 mph 19.6 mph N/A   Clear
2:15 PM 66.2 °F 42.8 °F 43% 29.75 in 10.0 mi Variable 4.6 mph 12.7 mph N/A   Clear
2:35 PM 66.2 °F 42.8 °F 43% 29.73 in 10.0 mi NE 11.5 mph 17.3 mph N/A   Clear
3:15 PM 68.0 °F 41.0 °F 37% 29.79 in 10.0 mi Variable 4.6 mph - N/A   Clear
3:35 PM 68.0 °F 41.0 °F 37% 29.77 in 10.0 mi North 10.4 mph 16.1 mph N/A   Clear
3:55 PM 68.0 °F 41.0 °F 37% 29.77 in 10.0 mi NNW 13.8 mph - N/A   Clear
4:15 PM 69.8 °F 41.0 °F 35% 29.76 in 10.0 mi North 15.0 mph - N/A   Clear
4:35 PM 68.0 °F 39.2 °F 35% 29.76 in 10.0 mi North 16.1 mph 23.0 mph N/A   Scattered Clouds
4:55 PM 66.2 °F 39.2 °F 37% 29.77 in 10.0 mi North 13.8 mph - N/A   Overcast
5:15 PM 66.2 °F 39.2 °F 37% 29.77 in 10.0 mi North 12.7 mph - N/A   Overcast
5:35 PM 66.2 °F 39.2 °F 37% 29.78 in 10.0 mi North 16.1 mph - N/A   Overcast
5:55 PM 66.2 °F 37.4 °F 35% 29.79 in 10.0 mi NNE 12.7 mph 19.6 mph N/A   Overcast
6:15 PM 66.2 °F 39.2 °F 37% 29.79 in 10.0 mi North 12.7 mph - N/A   Overcast
6:35 PM 64.4 °F 37.4 °F 37% 29.80 in 10.0 mi NNE 13.8 mph - N/A   Overcast
6:55 PM 64.4 °F 37.4 °F 37% 29.81 in 10.0 mi NE 12.7 mph - N/A   Overcast
7:15 PM 62.6 °F 37.4 °F 39% 29.82 in 5.0 mi NNE 11.5 mph 20.7 mph N/A   Haze
7:35 PM 60.8 °F 41.0 °F 48% 29.82 in 10.0 mi NNE 10.4 mph - N/A   Overcast
7:55 PM 59.0 °F 42.8 °F 55% 29.83 in 10.0 mi NNE 12.7 mph - 0.01 in   Light Drizzle
8:15 PM 59.0 °F 39.2 °F 48% 29.84 in 10.0 mi NNE 11.5 mph - N/A   Overcast
8:35 PM 59.0 °F 39.2 °F 48% 29.85 in 10.0 mi NE 11.5 mph - N/A Rain Light Rain
8:55 PM 59.0 °F 41.0 °F 51% 29.86 in 10.0 mi NNE 10.4 mph - N/A   Overcast
9:15 PM 59.0 °F 41.0 °F 51% 29.87 in 10.0 mi NE 10.4 mph - N/A   Overcast
9:35 PM 57.2 °F 41.0 °F 55% 29.88 in 10.0 mi NNE 13.8 mph - N/A Rain Light Rain
9:55 PM 55.4 °F 42.8 °F 63% 29.88 in 9.0 mi NNE 12.7 mph - N/A Rain Light Rain
10:15 PM 55.4 °F 41.0 °F 58% 29.90 in 10.0 mi NNE 16.1 mph - N/A   Overcast
10:35 PM 51.8 °F 42.8 °F 71% 29.91 in 2.5 mi NNE 18.4 mph - N/A Rain Heavy Rain
10:55 PM 53.6 °F 42.8 °F 67% 29.91 in 10.0 mi NE 16.1 mph - 0.02 in   Light Drizzle
11:15 PM 53.6 °F 42.8 °F 67% 29.90 in 9.0 mi NE 16.1 mph 23.0 mph N/A   Overcast
11:35 PM 51.8 °F 42.8 °F 71% 29.93 in 10.0 mi NE 15.0 mph 24.2 mph N/A   Light Drizzle